Jemez Springs, Valles Caldera, New Mexico Weather observations

Data are for 10 minute period ending at time listed.
 Day   Time   Solar   Ave.   Ave.  Ave.  Vector  Max.   Baro.   Total    
  of    of     Rad.   Air    Rel.  Wind   Wind   Wind  Press.  Precip.   
Year   Day            Temp.  Hum.  Speed  Dir.   Gust                    
2015   (MST)  Kw/m2    F      %     mph   deg.    mph    mb.     in.     
-------------------------------------------------------------------------
  85    8:30   0.51   43.8    36    2.6   118     4.8   815.1    0.00 
  85    8:40   0.55   43.7    37    3.5   164     6.0   815.1    0.00 
  85    8:50   0.58   44.5    36    3.8   168     5.4   815.2    0.00 
  85    9:00   0.61   45.2    36    4.0   173     6.0   815.2    0.00 
  85    9:10   0.64   46.7    33    3.8   194     7.2   815.2    0.00 
  85    9:20   0.67   47.2    29    4.8   171     9.0   815.1    0.00 
  85    9:30   0.70   47.3    27    6.0   172    10.2   815.2    0.00 
  85    9:40   0.72   48.1    27    6.2   173    10.8   815.1    0.00 
  85    9:50   0.75   48.1    26    8.1   179    11.9   815.0    0.00 
  85   10:00   0.77   48.8    24    7.6   184    13.1   815.0    0.00 
  85   10:10   0.80   49.0    24    8.0   178    13.1   815.0    0.00 
  85   10:20   0.81   49.7    24    8.3   173    14.3   814.9    0.00 
  85   10:30   0.83   50.6    24    7.9   175    11.9   814.9    0.00 
  85   10:40   0.85   50.0    25   10.4   186    15.5   814.7    0.00 
  85   10:50   0.86   50.3    24   10.2   171    17.3   814.6    0.00 
  85   11:00   0.88   50.9    23    8.8   183    16.7   814.7    0.00 
  85   11:10   0.89   51.2    22    8.9   186    12.5   814.7    0.00 
  85   11:20   0.90   50.9    23    9.4   182    14.9   814.5    0.00 
  85   11:30   0.91   51.3    22    7.9   183    14.3   814.4    0.00 
  85   11:40   0.92   52.3    22    9.7   170    18.5   814.3    0.00 
  85   11:50   0.92   52.9    21    8.8   178    14.3   814.3    0.00 
  85   12:00   0.92   52.9    21    9.8   185    17.3   814.2    0.00 
  85   12:10   0.88   53.1    20    9.3   184    16.1   814.0    0.00 
  85   12:20   0.92   53.3    20    8.6   191    15.5   813.9    0.00 
  85   12:30   0.92   54.4    19    7.7   179    14.3   813.8    0.00 
  85   12:40   0.91   54.2    19    8.5   180    15.5   813.7    0.00 
  85   12:50   0.91   54.8    18    7.6   172    13.7   813.5    0.00 
  85   13:00   0.90   55.8    18    7.9   189    14.3   813.3    0.00 
  85   13:10   0.89   56.0    18    8.0   162    13.1   813.1    0.00 
  85   13:20   0.87   56.4    17    7.2   154    13.1   812.8    0.00 
  85   13:30   0.87   56.7    17    8.6   167    17.9   812.7    0.00 
  85   13:40   0.79   57.8    17    6.5   176    14.9   812.4    0.00 
  85   13:50   0.83   58.0    16    7.2   167    12.5   812.1    0.00 
  85   14:00   0.80   59.0    16    7.9   159    13.1   811.9    0.00 
  85   14:10   0.78   59.5    16    7.6   166    13.7   811.7    0.00 
  85   14:20   0.76   60.4    15    8.4   170    16.1   811.6    0.00 
  85   14:30   0.74   61.2    14    7.1   156    14.9   811.4    0.00 
  85   14:40   0.72   62.2    14    6.4   140    14.9   811.3    0.00 
  85   14:50   0.69   63.3    13    7.1   174    16.4   811.1    0.00 
  85   15:00   0.66   62.6    13    6.2    52    13.7   811.0    0.00 
  85   15:10   0.63   62.8    13    9.5   350    18.5   811.1    0.00 
  85   15:20   0.56   62.7    13    6.6   311    13.1   811.1    0.00 
  85   15:30   0.57   64.2    13    4.6   109     9.0   811.0    0.00 
  85   15:40   0.53   63.6    13    6.5    10    14.9   811.0    0.00 
  85   15:50   0.50   63.7    13    3.9   157     9.0   810.9    0.00 
  85   16:00   0.46   64.6    12    5.6    19    12.5   810.9    0.00 
  85   16:10   0.43   62.9    12    8.7    31    16.1   810.9    0.00 
  85   16:20   0.39   62.5    12    5.9    91    14.9   810.9    0.00 
  85   16:30   0.34   62.7    12    7.2   156    14.9   810.8    0.00 
  85   16:40   0.31   62.3    12    5.5     1    13.7   810.9    0.00 
  85   16:50   0.28   62.1    12    6.7   351    16.1   811.0    0.00 
  85   17:00   0.24   61.8    12    6.6   186    16.1   811.0    0.00 
  85   17:10   0.05   60.7    12    6.9    41    12.5   811.1    0.00 
  85   17:20   0.03   60.0    12    3.0    26     6.6   811.1    0.00 
  85   17:30   0.03   59.6    13    3.6   140     9.0   811.3    0.00 
  85   17:40   0.02   58.7    14    3.2   130     5.7   811.3    0.00 
  85   17:50   0.02   57.9    15    2.4    52     5.4   811.4    0.00 
  85   18:00   0.01   56.0    18    2.7    50     4.8   811.5    0.00 
  85   18:10   0.01   54.0    20    2.9   227     5.4   811.6    0.00 
  85   18:20   0.01   52.8    22    1.8   355     3.6   811.7    0.00 
  85   18:30   0.00   51.7    23    1.1    42     4.2   811.8    0.00 
  85   18:40   0.00   50.3    26    2.2   351     4.8   812.0    0.00 
  85   18:50   0.00   49.3    27    1.1    35     3.0   812.1    0.00 
  85   19:00   0.00   48.7    27    2.5    14     5.4   812.3    0.00 
  85   19:10   0.00   48.9    27    3.1    28     5.4   812.3    0.00 
  85   19:20   0.00   48.3    28    3.4    26     6.6   812.5    0.00 
  85   19:30   0.00   47.7    29    3.9    33     6.6   812.6    0.00 
  85   19:40   0.00   46.7    30    3.6    23     7.8   812.8    0.00 
  85   19:50   0.00   46.1    31    3.9    30     7.5   813.0    0.00 
  85   20:00   0.00   45.5    32    3.1    41     4.8   813.0    0.00 
  85   20:10   0.00   44.9    33    2.2    13     4.8   813.1    0.00 
  85   20:20   0.00   44.2    33    3.2    41     4.8   813.1    0.00 
  85   20:30   0.00   43.9    34    2.6    33     6.6   813.1    0.00 
  85   20:40   0.00   42.8    37    1.7    24     3.6   813.2    0.00 
  85   20:50   0.00   42.7    37    2.8    35     5.4   813.2    0.00 
  85   21:00   0.00   42.2    39    2.3    24     5.7   813.4    0.00 
  85   21:10   0.00   41.0    42    3.1    20     7.2   813.4    0.00 
  85   21:20   0.00   43.3    35    4.9    15     7.2   813.5    0.00 
  85   21:30   0.00   44.7    33    4.4    18     6.6   813.5    0.00 
  85   21:40   0.00   43.8    34    4.5    29     7.2   813.6    0.00 
  85   21:50   0.00   43.4    35    7.2    23     9.0   813.7    0.00 
  85   22:00   0.00   43.3    35    5.6    18     9.6   813.7    0.00 
  85   22:10   0.00   42.3    38    4.1    28     6.0   813.8    0.00 
  85   22:20   0.00   41.7    39    3.9    25     6.6   813.8    0.00 
  85   22:30   0.00   40.9    42    5.0    27     7.2   813.8    0.00 
  85   22:40   0.00   40.5    42    4.2    35     8.4   813.8    0.00 
  85   22:50   0.00   40.4    43    5.6    32     8.4   813.8    0.00 
  85   23:00   0.00   40.2    43    6.6    31     9.6   813.8    0.00 
  85   23:10   0.00   40.5    42    7.4    29    10.8   813.9    0.00 
  85   23:20   0.00   40.6    42    6.6    19    10.2   813.9    0.00 
  85   23:30   0.00   40.6    41    5.6    27     8.4   813.9    0.00 
  85   23:40   0.00   40.1    43    4.4    28     8.4   813.9    0.00 
  85   23:50   0.00   39.6    44    3.5    10     6.0   813.9    0.00 
  86    0:00   0.00   39.2    45    1.9   323     3.3   813.9    0.00 
  86    0:10   0.00   37.9    50    2.3    14     4.8   813.9    0.00 
  86    0:20   0.00   37.5    50    3.0    18     4.8   813.8    0.00 
  86    0:30   0.00   37.9    48    3.7    19     7.8   813.8    0.00 
  86    0:40   0.00   38.4    47    5.3    26     8.4   813.9    0.00 
  86    0:50   0.00   38.6    47    5.6    26     7.8   813.8    0.00 
  86    1:00   0.00   39.0    45    7.4    24    11.9   813.8    0.00 
  86    1:10   0.00   38.9    45    9.0    28    13.7   813.8    0.00 
  86    1:20   0.00   38.8    46    8.8    24    12.5   813.7    0.00 
  86    1:30   0.00   38.0    47    6.7    36    11.9   813.7    0.00 
  86    1:40   0.00   38.2    47    8.6    26    11.9   813.7    0.00 
  86    1:50   0.00   38.4    46    8.4    28    12.5   813.5    0.00 
  86    2:00   0.00   38.3    46    7.9    32    13.1   813.4    0.00 
  86    2:10   0.00   38.2    46   10.0    21    13.7   813.3    0.00 
  86    2:20   0.00   37.5    48    9.0    30    12.5   813.3    0.00 
  86    2:30   0.00   37.7    47    7.9    34    11.9   813.3    0.00 
  86    2:40   0.00   37.8    46    7.8    33    10.2   813.3    0.00 
  86    2:50   0.00   38.2    45    7.8    31    11.9   813.2    0.00 
  86    3:00   0.00   38.0    46    8.4    28    12.5   813.2    0.00 
  86    3:10   0.00   39.0    43    7.8    10    11.9   813.2    0.00 
  86    3:20   0.00   40.2    40    8.1     7    11.9   813.3    0.00 
  86    3:30   0.00   40.6    39    7.7   357    12.5   813.3    0.00 
  86    3:40   0.00   40.9    38    7.9   357    12.5   813.1    0.00 
  86    3:50   0.00   41.0    38    8.8   357    14.9   813.0    0.00 
  86    4:00   0.00   40.1    40    9.8    11    16.1   813.1    0.00 
  86    4:10   0.00   39.7    41    8.9     7    13.7   813.2    0.00 
  86    4:20   0.00   39.6    41    8.2    10    16.7   813.2    0.00 
  86    4:30   0.00   39.0    43    6.6     6    11.3   813.4    0.00 
  86    4:40   0.00   38.5    44    5.3   355     9.6   813.5    0.00 
  86    4:50   0.00   38.0    45    3.2    18     7.2   813.7    0.00 
  86    5:00   0.00   37.4    47    4.2    33     8.4   813.7    0.00 
  86    5:10   0.00   36.5    49    5.6    22     8.4   813.8    0.00 
  86    5:20   0.00   36.0    50    5.8    14     9.6   813.9    0.00 
  86    5:30   0.00   36.1    51    6.9    15    10.2   813.9    0.00 
  86    5:40   0.00   36.0    51    6.7    22    11.9   814.0    0.00 
  86    5:50   0.00   36.0    51    6.8    14    11.3   814.0    0.00 
  86    6:00   0.00   36.1    51    6.3    17    11.3   814.2    0.00 
  86    6:10   0.01   36.5    50    6.6   352    10.2   814.3    0.00 
  86    6:20   0.01   36.2    51    7.4    11    11.3   814.4    0.00 
  86    6:30   0.01   35.9    52    5.6    16     9.6   814.4    0.00 
  86    6:40   0.02   36.1    52    4.9    23    10.8   814.5    0.00 
  86    6:50   0.02   36.3    51    1.8    49     5.4   814.6    0.00 
  86    7:00   0.02   36.1    52    2.7    42     4.5   814.7    0.00 
  86    7:10   0.11   36.8    51    4.8    31     7.2   814.7    0.00 
  86    7:20   0.25   39.4    47    3.5    40     6.0   814.7    0.00 
  86    7:30   0.29   41.4    44    3.5    40     4.8   814.7    0.00 
  86    7:40   0.33   43.7    41    2.8    43     5.4   814.7    0.00 
  86    7:50   0.37   45.4    38    4.1    43     8.4   814.7    0.00 
  86    8:00   0.41   47.0    36    4.0    46     7.8   814.6    0.00 
  86    8:10   0.44   48.7    34    3.6    52     7.2   814.7    0.00 
  86    8:20   0.48   51.8    31    2.3    43     4.2   814.6    0.00 

Return to Jemez Springs, Valles Caldera graphs page.


Western Regional Climate Center,wrcc@dri.edu